sensor_id;sensor_type;location;lat;lon;timestamp;P1;durP1;ratioP1;P2;durP2;ratioP2
57249;SDS011;43102;52.014;-0.680;2023-06-10T00:00:01;39.90;;;20.90;;
57249;SDS011;43102;52.014;-0.680;2023-06-10T00:01:01;39.90;;;20.90;;
57249;SDS011;43102;52.014;-0.680;2023-06-10T00:02:00;39.90;;;20.90;;
57249;SDS011;43102;52.014;-0.680;2023-06-10T00:03:01;39.90;;;20.90;;
57249;SDS011;43102;52.014;-0.680;2023-06-10T00:04:02;39.90;;;20.90;;
57249;SDS011;43102;52.014;-0.680;2023-06-10T00:05:00;39.90;;;20.90;;
57249;SDS011;43102;52.014;-0.680;2023-06-10T00:06:00;39.90;;;20.90;;
57249;SDS011;43102;52.014;-0.680;2023-06-10T00:07:00;39.90;;;20.90;;
57249;SDS011;43102;52.014;-0.680;2023-06-10T00:08:06;39.90;;;20.90;;
57249;SDS011;43102;52.014;-0.680;2023-06-10T00:09:02;39.90;;;20.90;;
57249;SDS011;43102;52.014;-0.680;2023-06-10T00:10:04;39.90;;;20.90;;
57249;SDS011;43102;52.014;-0.680;2023-06-10T00:11:00;39.90;;;20.90;;
57249;SDS011;43102;52.014;-0.680;2023-06-10T00:12:00;39.90;;;20.90;;
57249;SDS011;43102;52.014;-0.680;2023-06-10T00:13:01;39.90;;;20.90;;
57249;SDS011;43102;52.014;-0.680;2023-06-10T00:14:00;39.90;;;20.90;;
57249;SDS011;43102;52.014;-0.680;2023-06-10T00:15:00;39.90;;;20.90;;
57249;SDS011;43102;52.014;-0.680;2023-06-10T00:16:00;39.90;;;20.90;;
57249;SDS011;43102;52.014;-0.680;2023-06-10T00:17:00;29.00;;;17.50;;
57249;SDS011;43102;52.014;-0.680;2023-06-10T00:18:01;29.00;;;17.50;;
57249;SDS011;43102;52.014;-0.680;2023-06-10T00:19:00;29.00;;;17.50;;
57249;SDS011;43102;52.014;-0.680;2023-06-10T00:20:07;29.00;;;17.50;;
57249;SDS011;43102;52.014;-0.680;2023-06-10T00:21:04;29.00;;;17.50;;
57249;SDS011;43102;52.014;-0.680;2023-06-10T00:22:00;29.00;;;17.50;;
57249;SDS011;43102;52.014;-0.680;2023-06-10T00:23:01;29.00;;;17.50;;
57249;SDS011;43102;52.014;-0.680;2023-06-10T00:24:02;29.00;;;17.50;;
57249;SDS011;43102;52.014;-0.680;2023-06-10T00:25:00;29.00;;;17.50;;
57249;SDS011;43102;52.014;-0.680;2023-06-10T00:26:00;29.00;;;17.50;;
57249;SDS011;43102;52.014;-0.680;2023-06-10T00:27:00;29.00;;;17.50;;
57249;SDS011;43102;52.014;-0.680;2023-06-10T00:28:00;29.00;;;17.50;;
57249;SDS011;43102;52.014;-0.680;2023-06-10T00:29:00;29.00;;;17.50;;
57249;SDS011;43102;52.014;-0.680;2023-06-10T00:30:04;29.00;;;17.50;;
57249;SDS011;43102;52.014;-0.680;2023-06-10T00:31:00;29.00;;;17.50;;
57249;SDS011;43102;52.014;-0.680;2023-06-10T00:32:00;29.00;;;17.50;;
57249;SDS011;43102;52.014;-0.680;2023-06-10T00:33:00;29.00;;;17.50;;
57249;SDS011;43102;52.014;-0.680;2023-06-10T00:34:00;29.00;;;17.50;;
57249;SDS011;43102;52.014;-0.680;2023-06-10T00:35:00;29.00;;;17.50;;
57249;SDS011;43102;52.014;-0.680;2023-06-10T00:36:00;29.00;;;17.50;;
57249;SDS011;43102;52.014;-0.680;2023-06-10T00:37:00;29.00;;;17.50;;
57249;SDS011;43102;52.014;-0.680;2023-06-10T00:38:00;29.00;;;17.50;;
57249;SDS011;43102;52.014;-0.680;2023-06-10T00:39:00;29.00;;;17.50;;
57249;SDS011;43102;52.014;-0.680;2023-06-10T00:40:00;29.00;;;17.50;;
57249;SDS011;43102;52.014;-0.680;2023-06-10T00:41:00;29.00;;;17.50;;
57249;SDS011;43102;52.014;-0.680;2023-06-10T00:42:00;29.00;;;17.50;;
57249;SDS011;43102;52.014;-0.680;2023-06-10T00:43:00;29.00;;;17.50;;
57249;SDS011;43102;52.014;-0.680;2023-06-10T00:44:00;29.00;;;17.50;;
57249;SDS011;43102;52.014;-0.680;2023-06-10T00:45:00;29.00;;;17.50;;
57249;SDS011;43102;52.014;-0.680;2023-06-10T00:46:00;29.00;;;17.50;;
57249;SDS011;43102;52.014;-0.680;2023-06-10T00:47:00;28.60;;;16.60;;
57249;SDS011;43102;52.014;-0.680;2023-06-10T00:48:01;28.60;;;16.60;;
57249;SDS011;43102;52.014;-0.680;2023-06-10T00:49:00;28.60;;;16.60;;
57249;SDS011;43102;52.014;-0.680;2023-06-10T00:50:00;28.60;;;16.60;;
57249;SDS011;43102;52.014;-0.680;2023-06-10T00:51:00;28.60;;;16.60;;
57249;SDS011;43102;52.014;-0.680;2023-06-10T00:52:02;28.60;;;16.60;;
57249;SDS011;43102;52.014;-0.680;2023-06-10T00:53:00;28.60;;;16.60;;
57249;SDS011;43102;52.014;-0.680;2023-06-10T00:54:00;28.60;;;16.60;;
57249;SDS011;43102;52.014;-0.680;2023-06-10T00:55:00;28.60;;;16.60;;
57249;SDS011;43102;52.014;-0.680;2023-06-10T00:56:00;28.60;;;16.60;;
57249;SDS011;43102;52.014;-0.680;2023-06-10T00:57:01;28.60;;;16.60;;
57249;SDS011;43102;52.014;-0.680;2023-06-10T00:58:01;28.60;;;16.60;;
57249;SDS011;43102;52.014;-0.680;2023-06-10T00:59:00;28.60;;;16.60;;
57249;SDS011;43102;52.014;-0.680;2023-06-10T01:00:00;28.60;;;16.60;;
57249;SDS011;43102;52.014;-0.680;2023-06-10T01:01:00;28.60;;;16.60;;
57249;SDS011;43102;52.014;-0.680;2023-06-10T01:02:03;28.60;;;16.60;;
57249;SDS011;43102;52.014;-0.680;2023-06-10T01:03:00;28.60;;;16.60;;
57249;SDS011;43102;52.014;-0.680;2023-06-10T01:04:00;28.60;;;16.60;;
57249;SDS011;43102;52.014;-0.680;2023-06-10T01:05:01;28.60;;;16.60;;
57249;SDS011;43102;52.014;-0.680;2023-06-10T01:06:06;28.60;;;16.60;;
57249;SDS011;43102;52.014;-0.680;2023-06-10T01:07:09;28.60;;;16.60;;
57249;SDS011;43102;52.014;-0.680;2023-06-10T01:09:13;28.60;;;16.60;;
57249;SDS011;43102;52.014;-0.680;2023-06-10T01:10:04;28.60;;;16.60;;
57249;SDS011;43102;52.014;-0.680;2023-06-10T01:11:01;28.60;;;16.60;;
57249;SDS011;43102;52.014;-0.680;2023-06-10T01:12:16;28.60;;;16.60;;
57249;SDS011;43102;52.014;-0.680;2023-06-10T01:13:03;28.60;;;16.60;;
57249;SDS011;43102;52.014;-0.680;2023-06-10T01:14:01;28.60;;;16.60;;
57249;SDS011;43102;52.014;-0.680;2023-06-10T01:15:01;28.60;;;16.60;;
57249;SDS011;43102;52.014;-0.680;2023-06-10T01:16:01;28.60;;;16.60;;
57249;SDS011;43102;52.014;-0.680;2023-06-10T01:17:01;29.10;;;13.40;;
57249;SDS011;43102;52.014;-0.680;2023-06-10T01:18:03;29.10;;;13.40;;
57249;SDS011;43102;52.014;-0.680;2023-06-10T01:19:00;29.10;;;13.40;;
57249;SDS011;43102;52.014;-0.680;2023-06-10T01:20:02;29.10;;;13.40;;
57249;SDS011;43102;52.014;-0.680;2023-06-10T01:21:00;29.10;;;13.40;;
57249;SDS011;43102;52.014;-0.680;2023-06-10T01:22:00;29.10;;;13.40;;
57249;SDS011;43102;52.014;-0.680;2023-06-10T01:23:02;29.10;;;13.40;;
57249;SDS011;43102;52.014;-0.680;2023-06-10T01:24:01;29.10;;;13.40;;
57249;SDS011;43102;52.014;-0.680;2023-06-10T01:25:03;29.10;;;13.40;;
57249;SDS011;43102;52.014;-0.680;2023-06-10T01:26:03;29.10;;;13.40;;
57249;SDS011;43102;52.014;-0.680;2023-06-10T01:27:01;29.10;;;13.40;;
57249;SDS011;43102;52.014;-0.680;2023-06-10T01:28:05;29.10;;;13.40;;
57249;SDS011;43102;52.014;-0.680;2023-06-10T01:30:08;29.10;;;13.40;;
57249;SDS011;43102;52.014;-0.680;2023-06-10T01:32:06;29.10;;;13.40;;
57249;SDS011;43102;52.014;-0.680;2023-06-10T01:33:02;29.10;;;13.40;;
57249;SDS011;43102;52.014;-0.680;2023-06-10T01:34:03;29.10;;;13.40;;
57249;SDS011;43102;52.014;-0.680;2023-06-10T01:35:01;29.10;;;13.40;;
57249;SDS011;43102;52.014;-0.680;2023-06-10T01:36:02;29.10;;;13.40;;
57249;SDS011;43102;52.014;-0.680;2023-06-10T01:37:02;29.10;;;13.40;;
57249;SDS011;43102;52.014;-0.680;2023-06-10T01:38:01;29.10;;;13.40;;
57249;SDS011;43102;52.014;-0.680;2023-06-10T01:39:02;29.10;;;13.40;;
57249;SDS011;43102;52.014;-0.680;2023-06-10T01:40:05;29.10;;;13.40;;
57249;SDS011;43102;52.014;-0.680;2023-06-10T01:41:00;29.10;;;13.40;;
57249;SDS011;43102;52.014;-0.680;2023-06-10T01:42:02;29.10;;;13.40;;
57249;SDS011;43102;52.014;-0.680;2023-06-10T01:43:00;29.10;;;13.40;;
57249;SDS011;43102;52.014;-0.680;2023-06-10T01:44:00;29.10;;;13.40;;
57249;SDS011;43102;52.014;-0.680;2023-06-10T01:45:00;29.10;;;13.40;;
57249;SDS011;43102;52.014;-0.680;2023-06-10T01:46:00;29.10;;;13.40;;
57249;SDS011;43102;52.014;-0.680;2023-06-10T01:47:00;23.50;;;12.30;;
57249;SDS011;43102;52.014;-0.680;2023-06-10T01:48:00;23.50;;;12.30;;
57249;SDS011;43102;52.014;-0.680;2023-06-10T01:49:00;23.50;;;12.30;;
57249;SDS011;43102;52.014;-0.680;2023-06-10T01:50:00;23.50;;;12.30;;
57249;SDS011;43102;52.014;-0.680;2023-06-10T01:51:00;23.50;;;12.30;;
57249;SDS011;43102;52.014;-0.680;2023-06-10T01:52:00;23.50;;;12.30;;
57249;SDS011;43102;52.014;-0.680;2023-06-10T01:53:00;23.50;;;12.30;;
57249;SDS011;43102;52.014;-0.680;2023-06-10T01:54:00;23.50;;;12.30;;
57249;SDS011;43102;52.014;-0.680;2023-06-10T01:55:00;23.50;;;12.30;;
57249;SDS011;43102;52.014;-0.680;2023-06-10T01:56:00;23.50;;;12.30;;
57249;SDS011;43102;52.014;-0.680;2023-06-10T01:57:01;23.50;;;12.30;;
57249;SDS011;43102;52.014;-0.680;2023-06-10T01:58:00;23.50;;;12.30;;
57249;SDS011;43102;52.014;-0.680;2023-06-10T01:59:00;23.50;;;12.30;;
57249;SDS011;43102;52.014;-0.680;2023-06-10T02:00:00;23.50;;;12.30;;
57249;SDS011;43102;52.014;-0.680;2023-06-10T02:01:00;23.50;;;12.30;;
57249;SDS011;43102;52.014;-0.680;2023-06-10T02:02:00;23.50;;;12.30;;
57249;SDS011;43102;52.014;-0.680;2023-06-10T02:03:00;23.50;;;12.30;;
57249;SDS011;43102;52.014;-0.680;2023-06-10T02:04:00;23.50;;;12.30;;
57249;SDS011;43102;52.014;-0.680;2023-06-10T02:05:00;23.50;;;12.30;;
57249;SDS011;43102;52.014;-0.680;2023-06-10T02:06:00;23.50;;;12.30;;
57249;SDS011;43102;52.014;-0.680;2023-06-10T02:07:03;23.50;;;12.30;;
57249;SDS011;43102;52.014;-0.680;2023-06-10T02:08:01;23.50;;;12.30;;
57249;SDS011;43102;52.014;-0.680;2023-06-10T02:09:01;23.50;;;12.30;;
57249;SDS011;43102;52.014;-0.680;2023-06-10T02:10:00;23.50;;;12.30;;
57249;SDS011;43102;52.014;-0.680;2023-06-10T02:11:00;23.50;;;12.30;;
57249;SDS011;43102;52.014;-0.680;2023-06-10T02:12:02;23.50;;;12.30;;
57249;SDS011;43102;52.014;-0.680;2023-06-10T02:13:00;23.50;;;12.30;;
57249;SDS011;43102;52.014;-0.680;2023-06-10T02:14:00;23.50;;;12.30;;
57249;SDS011;43102;52.014;-0.680;2023-06-10T02:15:00;23.50;;;12.30;;
57249;SDS011;43102;52.014;-0.680;2023-06-10T02:16:00;23.50;;;12.30;;
57249;SDS011;43102;52.014;-0.680;2023-06-10T02:17:01;24.00;;;12.40;;
57249;SDS011;43102;52.014;-0.680;2023-06-10T02:18:00;24.00;;;12.40;;
57249;SDS011;43102;52.014;-0.680;2023-06-10T02:19:00;24.00;;;12.40;;
57249;SDS011;43102;52.014;-0.680;2023-06-10T02:20:07;24.00;;;12.40;;
57249;SDS011;43102;52.014;-0.680;2023-06-10T02:21:00;24.00;;;12.40;;
57249;SDS011;43102;52.014;-0.680;2023-06-10T02:22:00;24.00;;;12.40;;
57249;SDS011;43102;52.014;-0.680;2023-06-10T02:23:00;24.00;;;12.40;;
57249;SDS011;43102;52.014;-0.680;2023-06-10T02:24:01;24.00;;;12.40;;
57249;SDS011;43102;52.014;-0.680;2023-06-10T02:25:00;24.00;;;12.40;;
57249;SDS011;43102;52.014;-0.680;2023-06-10T02:26:00;24.00;;;12.40;;
57249;SDS011;43102;52.014;-0.680;2023-06-10T02:27:01;24.00;;;12.40;;
57249;SDS011;43102;52.014;-0.680;2023-06-10T02:28:00;24.00;;;12.40;;
57249;SDS011;43102;52.014;-0.680;2023-06-10T02:29:00;24.00;;;12.40;;
57249;SDS011;43102;52.014;-0.680;2023-06-10T02:30:00;24.00;;;12.40;;
57249;SDS011;43102;52.014;-0.680;2023-06-10T02:31:00;24.00;;;12.40;;
57249;SDS011;43102;52.014;-0.680;2023-06-10T02:32:02;24.00;;;12.40;;
57249;SDS011;43102;52.014;-0.680;2023-06-10T02:33:01;24.00;;;12.40;;
57249;SDS011;43102;52.014;-0.680;2023-06-10T02:34:01;24.00;;;12.40;;
57249;SDS011;43102;52.014;-0.680;2023-06-10T02:35:01;24.00;;;12.40;;
57249;SDS011;43102;52.014;-0.680;2023-06-10T02:36:00;24.00;;;12.40;;
57249;SDS011;43102;52.014;-0.680;2023-06-10T02:37:00;24.00;;;12.40;;
57249;SDS011;43102;52.014;-0.680;2023-06-10T02:38:00;24.00;;;12.40;;
57249;SDS011;43102;52.014;-0.680;2023-06-10T02:39:00;24.00;;;12.40;;
57249;SDS011;43102;52.014;-0.680;2023-06-10T02:40:00;24.00;;;12.40;;
57249;SDS011;43102;52.014;-0.680;2023-06-10T02:41:00;24.00;;;12.40;;
57249;SDS011;43102;52.014;-0.680;2023-06-10T02:42:00;24.00;;;12.40;;
57249;SDS011;43102;52.014;-0.680;2023-06-10T02:43:00;24.00;;;12.40;;
57249;SDS011;43102;52.014;-0.680;2023-06-10T02:44:00;24.00;;;12.40;;
57249;SDS011;43102;52.014;-0.680;2023-06-10T02:45:00;24.00;;;12.40;;
57249;SDS011;43102;52.014;-0.680;2023-06-10T02:46:00;24.00;;;12.40;;
57249;SDS011;43102;52.014;-0.680;2023-06-10T02:47:00;24.10;;;12.00;;
57249;SDS011;43102;52.014;-0.680;2023-06-10T02:48:00;24.10;;;12.00;;
57249;SDS011;43102;52.014;-0.680;2023-06-10T02:49:01;24.10;;;12.00;;
57249;SDS011;43102;52.014;-0.680;2023-06-10T02:50:00;24.10;;;12.00;;
57249;SDS011;43102;52.014;-0.680;2023-06-10T02:51:01;24.10;;;12.00;;
57249;SDS011;43102;52.014;-0.680;2023-06-10T02:52:00;24.10;;;12.00;;
57249;SDS011;43102;52.014;-0.680;2023-06-10T02:53:02;24.10;;;12.00;;
57249;SDS011;43102;52.014;-0.680;2023-06-10T02:54:00;24.10;;;12.00;;
57249;SDS011;43102;52.014;-0.680;2023-06-10T02:55:00;24.10;;;12.00;;
57249;SDS011;43102;52.014;-0.680;2023-06-10T02:56:00;24.10;;;12.00;;
57249;SDS011;43102;52.014;-0.680;2023-06-10T02:57:00;24.10;;;12.00;;
57249;SDS011;43102;52.014;-0.680;2023-06-10T02:58:00;24.10;;;12.00;;
57249;SDS011;43102;52.014;-0.680;2023-06-10T02:59:00;24.10;;;12.00;;
57249;SDS011;43102;52.014;-0.680;2023-06-10T03:00:01;24.10;;;12.00;;
57249;SDS011;43102;52.014;-0.680;2023-06-10T03:01:00;24.10;;;12.00;;
57249;SDS011;43102;52.014;-0.680;2023-06-10T03:02:01;24.10;;;12.00;;
57249;SDS011;43102;52.014;-0.680;2023-06-10T03:03:03;24.10;;;12.00;;
57249;SDS011;43102;52.014;-0.680;2023-06-10T03:04:00;24.10;;;12.00;;
57249;SDS011;43102;52.014;-0.680;2023-06-10T03:05:00;24.10;;;12.00;;
57249;SDS011;43102;52.014;-0.680;2023-06-10T03:06:01;24.10;;;12.00;;
57249;SDS011;43102;52.014;-0.680;2023-06-10T03:07:03;24.10;;;12.00;;
57249;SDS011;43102;52.014;-0.680;2023-06-10T03:08:00;24.10;;;12.00;;
57249;SDS011;43102;52.014;-0.680;2023-06-10T03:09:01;24.10;;;12.00;;
57249;SDS011;43102;52.014;-0.680;2023-06-10T03:10:00;24.10;;;12.00;;
57249;SDS011;43102;52.014;-0.680;2023-06-10T03:11:00;24.10;;;12.00;;
57249;SDS011;43102;52.014;-0.680;2023-06-10T03:12:00;24.10;;;12.00;;
57249;SDS011;43102;52.014;-0.680;2023-06-10T03:13:00;24.10;;;12.00;;
57249;SDS011;43102;52.014;-0.680;2023-06-10T03:14:00;24.10;;;12.00;;
57249;SDS011;43102;52.014;-0.680;2023-06-10T03:15:00;24.10;;;12.00;;
57249;SDS011;43102;52.014;-0.680;2023-06-10T03:16:01;24.10;;;12.00;;
57249;SDS011;43102;52.014;-0.680;2023-06-10T03:17:00;25.60;;;13.60;;
57249;SDS011;43102;52.014;-0.680;2023-06-10T03:18:00;25.60;;;13.60;;
57249;SDS011;43102;52.014;-0.680;2023-06-10T03:19:00;25.60;;;13.60;;
57249;SDS011;43102;52.014;-0.680;2023-06-10T03:20:00;25.60;;;13.60;;
57249;SDS011;43102;52.014;-0.680;2023-06-10T03:21:00;25.60;;;13.60;;
57249;SDS011;43102;52.014;-0.680;2023-06-10T03:22:10;25.60;;;13.60;;
57249;SDS011;43102;52.014;-0.680;2023-06-10T03:23:00;25.60;;;13.60;;
57249;SDS011;43102;52.014;-0.680;2023-06-10T03:24:00;25.60;;;13.60;;
57249;SDS011;43102;52.014;-0.680;2023-06-10T03:25:00;25.60;;;13.60;;
57249;SDS011;43102;52.014;-0.680;2023-06-10T03:26:00;25.60;;;13.60;;
57249;SDS011;43102;52.014;-0.680;2023-06-10T03:27:01;25.60;;;13.60;;
57249;SDS011;43102;52.014;-0.680;2023-06-10T03:28:00;25.60;;;13.60;;
57249;SDS011;43102;52.014;-0.680;2023-06-10T03:29:00;25.60;;;13.60;;
57249;SDS011;43102;52.014;-0.680;2023-06-10T03:30:00;25.60;;;13.60;;
57249;SDS011;43102;52.014;-0.680;2023-06-10T03:31:00;25.60;;;13.60;;
57249;SDS011;43102;52.014;-0.680;2023-06-10T03:32:01;25.60;;;13.60;;
57249;SDS011;43102;52.014;-0.680;2023-06-10T03:33:00;25.60;;;13.60;;
57249;SDS011;43102;52.014;-0.680;2023-06-10T03:34:00;25.60;;;13.60;;
57249;SDS011;43102;52.014;-0.680;2023-06-10T03:35:00;25.60;;;13.60;;
57249;SDS011;43102;52.014;-0.680;2023-06-10T03:36:00;25.60;;;13.60;;
57249;SDS011;43102;52.014;-0.680;2023-06-10T03:37:00;25.60;;;13.60;;
57249;SDS011;43102;52.014;-0.680;2023-06-10T03:38:00;25.60;;;13.60;;
57249;SDS011;43102;52.014;-0.680;2023-06-10T03:39:00;25.60;;;13.60;;
57249;SDS011;43102;52.014;-0.680;2023-06-10T03:40:00;25.60;;;13.60;;
57249;SDS011;43102;52.014;-0.680;2023-06-10T03:41:00;25.60;;;13.60;;
57249;SDS011;43102;52.014;-0.680;2023-06-10T03:42:00;25.60;;;13.60;;
57249;SDS011;43102;52.014;-0.680;2023-06-10T03:43:00;25.60;;;13.60;;
57249;SDS011;43102;52.014;-0.680;2023-06-10T03:44:00;25.60;;;13.60;;
57249;SDS011;43102;52.014;-0.680;2023-06-10T03:45:01;25.60;;;13.60;;
57249;SDS011;43102;52.014;-0.680;2023-06-10T03:46:00;25.60;;;13.60;;
57249;SDS011;43102;52.014;-0.680;2023-06-10T03:47:00;21.20;;;12.60;;
57249;SDS011;43102;52.014;-0.680;2023-06-10T03:48:01;21.20;;;12.60;;
57249;SDS011;43102;52.014;-0.680;2023-06-10T03:49:01;21.20;;;12.60;;
57249;SDS011;43102;52.014;-0.680;2023-06-10T03:50:00;21.20;;;12.60;;
57249;SDS011;43102;52.014;-0.680;2023-06-10T03:51:00;21.20;;;12.60;;
57249;SDS011;43102;52.014;-0.680;2023-06-10T03:52:00;21.20;;;12.60;;
57249;SDS011;43102;52.014;-0.680;2023-06-10T03:53:00;21.20;;;12.60;;
57249;SDS011;43102;52.014;-0.680;2023-06-10T03:54:00;21.20;;;12.60;;
57249;SDS011;43102;52.014;-0.680;2023-06-10T03:55:00;21.20;;;12.60;;
57249;SDS011;43102;52.014;-0.680;2023-06-10T03:56:00;21.20;;;12.60;;
57249;SDS011;43102;52.014;-0.680;2023-06-10T03:57:01;21.20;;;12.60;;
57249;SDS011;43102;52.014;-0.680;2023-06-10T03:58:00;21.20;;;12.60;;
57249;SDS011;43102;52.014;-0.680;2023-06-10T03:59:00;21.20;;;12.60;;
57249;SDS011;43102;52.014;-0.680;2023-06-10T04:00:03;21.20;;;12.60;;
57249;SDS011;43102;52.014;-0.680;2023-06-10T04:01:00;21.20;;;12.60;;
57249;SDS011;43102;52.014;-0.680;2023-06-10T04:02:01;21.20;;;12.60;;
57249;SDS011;43102;52.014;-0.680;2023-06-10T04:03:01;21.20;;;12.60;;
57249;SDS011;43102;52.014;-0.680;2023-06-10T04:04:01;21.20;;;12.60;;
57249;SDS011;43102;52.014;-0.680;2023-06-10T04:05:01;21.20;;;12.60;;
57249;SDS011;43102;52.014;-0.680;2023-06-10T04:06:01;21.20;;;12.60;;
57249;SDS011;43102;52.014;-0.680;2023-06-10T04:07:00;21.20;;;12.60;;
57249;SDS011;43102;52.014;-0.680;2023-06-10T04:08:01;21.20;;;12.60;;
57249;SDS011;43102;52.014;-0.680;2023-06-10T04:09:00;21.20;;;12.60;;
57249;SDS011;43102;52.014;-0.680;2023-06-10T04:10:00;21.20;;;12.60;;
57249;SDS011;43102;52.014;-0.680;2023-06-10T04:11:00;21.20;;;12.60;;
57249;SDS011;43102;52.014;-0.680;2023-06-10T04:12:01;21.20;;;12.60;;
57249;SDS011;43102;52.014;-0.680;2023-06-10T04:13:00;21.20;;;12.60;;
57249;SDS011;43102;52.014;-0.680;2023-06-10T04:14:00;21.20;;;12.60;;
57249;SDS011;43102;52.014;-0.680;2023-06-10T04:15:00;21.20;;;12.60;;
57249;SDS011;43102;52.014;-0.680;2023-06-10T04:16:00;21.20;;;12.60;;
57249;SDS011;43102;52.014;-0.680;2023-06-10T04:17:00;23.50;;;13.00;;
57249;SDS011;43102;52.014;-0.680;2023-06-10T04:18:01;23.50;;;13.00;;
57249;SDS011;43102;52.014;-0.680;2023-06-10T04:19:00;23.50;;;13.00;;
57249;SDS011;43102;52.014;-0.680;2023-06-10T04:20:00;23.50;;;13.00;;
57249;SDS011;43102;52.014;-0.680;2023-06-10T04:21:01;23.50;;;13.00;;
57249;SDS011;43102;52.014;-0.680;2023-06-10T04:22:01;23.50;;;13.00;;
57249;SDS011;43102;52.014;-0.680;2023-06-10T04:23:01;23.50;;;13.00;;
57249;SDS011;43102;52.014;-0.680;2023-06-10T04:24:01;23.50;;;13.00;;
57249;SDS011;43102;52.014;-0.680;2023-06-10T04:25:00;23.50;;;13.00;;
57249;SDS011;43102;52.014;-0.680;2023-06-10T04:26:00;23.50;;;13.00;;
57249;SDS011;43102;52.014;-0.680;2023-06-10T04:27:00;23.50;;;13.00;;
57249;SDS011;43102;52.014;-0.680;2023-06-10T04:28:00;23.50;;;13.00;;
57249;SDS011;43102;52.014;-0.680;2023-06-10T04:29:00;23.50;;;13.00;;
57249;SDS011;43102;52.014;-0.680;2023-06-10T04:30:00;23.50;;;13.00;;
57249;SDS011;43102;52.014;-0.680;2023-06-10T04:31:01;23.50;;;13.00;;
57249;SDS011;43102;52.014;-0.680;2023-06-10T04:32:01;23.50;;;13.00;;
57249;SDS011;43102;52.014;-0.680;2023-06-10T04:33:00;23.50;;;13.00;;
57249;SDS011;43102;52.014;-0.680;2023-06-10T04:34:00;23.50;;;13.00;;
57249;SDS011;43102;52.014;-0.680;2023-06-10T04:35:00;23.50;;;13.00;;
57249;SDS011;43102;52.014;-0.680;2023-06-10T04:36:00;23.50;;;13.00;;
57249;SDS011;43102;52.014;-0.680;2023-06-10T04:37:00;23.50;;;13.00;;
57249;SDS011;43102;52.014;-0.680;2023-06-10T04:38:02;23.50;;;13.00;;
57249;SDS011;43102;52.014;-0.680;2023-06-10T04:39:01;23.50;;;13.00;;
57249;SDS011;43102;52.014;-0.680;2023-06-10T04:40:00;23.50;;;13.00;;
57249;SDS011;43102;52.014;-0.680;2023-06-10T04:41:00;23.50;;;13.00;;
57249;SDS011;43102;52.014;-0.680;2023-06-10T04:42:01;23.50;;;13.00;;
57249;SDS011;43102;52.014;-0.680;2023-06-10T04:43:00;23.50;;;13.00;;
57249;SDS011;43102;52.014;-0.680;2023-06-10T04:44:00;23.50;;;13.00;;
57249;SDS011;43102;52.014;-0.680;2023-06-10T04:45:00;23.50;;;13.00;;
57249;SDS011;43102;52.014;-0.680;2023-06-10T04:46:00;23.50;;;13.00;;
57249;SDS011;43102;52.014;-0.680;2023-06-10T04:47:00;24.40;;;13.40;;
57249;SDS011;43102;52.014;-0.680;2023-06-10T04:48:00;24.40;;;13.40;;
57249;SDS011;43102;52.014;-0.680;2023-06-10T04:49:00;24.40;;;13.40;;
57249;SDS011;43102;52.014;-0.680;2023-06-10T04:50:01;24.40;;;13.40;;
57249;SDS011;43102;52.014;-0.680;2023-06-10T04:51:00;24.40;;;13.40;;
57249;SDS011;43102;52.014;-0.680;2023-06-10T04:52:00;24.40;;;13.40;;
57249;SDS011;43102;52.014;-0.680;2023-06-10T04:53:00;24.40;;;13.40;;
57249;SDS011;43102;52.014;-0.680;2023-06-10T04:54:03;24.40;;;13.40;;
57249;SDS011;43102;52.014;-0.680;2023-06-10T04:55:00;24.40;;;13.40;;
57249;SDS011;43102;52.014;-0.680;2023-06-10T04:56:00;24.40;;;13.40;;
57249;SDS011;43102;52.014;-0.680;2023-06-10T04:57:00;24.40;;;13.40;;
57249;SDS011;43102;52.014;-0.680;2023-06-10T04:58:00;24.40;;;13.40;;
57249;SDS011;43102;52.014;-0.680;2023-06-10T04:59:00;24.40;;;13.40;;
57249;SDS011;43102;52.014;-0.680;2023-06-10T05:00:00;24.40;;;13.40;;
57249;SDS011;43102;52.014;-0.680;2023-06-10T05:01:01;24.40;;;13.40;;
57249;SDS011;43102;52.014;-0.680;2023-06-10T05:02:00;24.40;;;13.40;;
57249;SDS011;43102;52.014;-0.680;2023-06-10T05:03:01;24.40;;;13.40;;
57249;SDS011;43102;52.014;-0.680;2023-06-10T05:04:00;24.40;;;13.40;;
57249;SDS011;43102;52.014;-0.680;2023-06-10T05:05:00;24.40;;;13.40;;
57249;SDS011;43102;52.014;-0.680;2023-06-10T05:06:00;24.40;;;13.40;;
57249;SDS011;43102;52.014;-0.680;2023-06-10T05:07:00;24.40;;;13.40;;
57249;SDS011;43102;52.014;-0.680;2023-06-10T05:08:00;24.40;;;13.40;;
57249;SDS011;43102;52.014;-0.680;2023-06-10T05:09:00;24.40;;;13.40;;
57249;SDS011;43102;52.014;-0.680;2023-06-10T05:10:01;24.40;;;13.40;;
57249;SDS011;43102;52.014;-0.680;2023-06-10T05:11:00;24.40;;;13.40;;
57249;SDS011;43102;52.014;-0.680;2023-06-10T05:12:00;24.40;;;13.40;;
57249;SDS011;43102;52.014;-0.680;2023-06-10T05:13:00;24.40;;;13.40;;
57249;SDS011;43102;52.014;-0.680;2023-06-10T05:14:00;24.40;;;13.40;;
57249;SDS011;43102;52.014;-0.680;2023-06-10T05:15:01;24.40;;;13.40;;
57249;SDS011;43102;52.014;-0.680;2023-06-10T05:16:00;24.40;;;13.40;;
57249;SDS011;43102;52.014;-0.680;2023-06-10T05:17:00;26.30;;;15.50;;
57249;SDS011;43102;52.014;-0.680;2023-06-10T05:18:02;26.30;;;15.50;;
57249;SDS011;43102;52.014;-0.680;2023-06-10T05:19:00;26.30;;;15.50;;
57249;SDS011;43102;52.014;-0.680;2023-06-10T05:20:01;26.30;;;15.50;;
57249;SDS011;43102;52.014;-0.680;2023-06-10T05:21:00;26.30;;;15.50;;
57249;SDS011;43102;52.014;-0.680;2023-06-10T05:22:00;26.30;;;15.50;;
57249;SDS011;43102;52.014;-0.680;2023-06-10T05:23:00;26.30;;;15.50;;
57249;SDS011;43102;52.014;-0.680;2023-06-10T05:24:00;26.30;;;15.50;;
57249;SDS011;43102;52.014;-0.680;2023-06-10T05:25:00;26.30;;;15.50;;
57249;SDS011;43102;52.014;-0.680;2023-06-10T05:26:00;26.30;;;15.50;;
57249;SDS011;43102;52.014;-0.680;2023-06-10T05:27:00;26.30;;;15.50;;
57249;SDS011;43102;52.014;-0.680;2023-06-10T05:28:00;26.30;;;15.50;;
57249;SDS011;43102;52.014;-0.680;2023-06-10T05:29:00;26.30;;;15.50;;
57249;SDS011;43102;52.014;-0.680;2023-06-10T05:30:00;26.30;;;15.50;;
57249;SDS011;43102;52.014;-0.680;2023-06-10T05:31:00;26.30;;;15.50;;
57249;SDS011;43102;52.014;-0.680;2023-06-10T05:32:03;26.30;;;15.50;;
57249;SDS011;43102;52.014;-0.680;2023-06-10T05:33:00;26.30;;;15.50;;
57249;SDS011;43102;52.014;-0.680;2023-06-10T05:34:00;26.30;;;15.50;;
57249;SDS011;43102;52.014;-0.680;2023-06-10T05:35:01;26.30;;;15.50;;
57249;SDS011;43102;52.014;-0.680;2023-06-10T05:36:00;26.30;;;15.50;;
57249;SDS011;43102;52.014;-0.680;2023-06-10T05:37:01;26.30;;;15.50;;
57249;SDS011;43102;52.014;-0.680;2023-06-10T05:38:04;26.30;;;15.50;;
57249;SDS011;43102;52.014;-0.680;2023-06-10T05:39:00;26.30;;;15.50;;
57249;SDS011;43102;52.014;-0.680;2023-06-10T05:40:00;26.30;;;15.50;;
57249;SDS011;43102;52.014;-0.680;2023-06-10T05:41:00;26.30;;;15.50;;
57249;SDS011;43102;52.014;-0.680;2023-06-10T05:42:02;26.30;;;15.50;;
57249;SDS011;43102;52.014;-0.680;2023-06-10T05:43:00;26.30;;;15.50;;
57249;SDS011;43102;52.014;-0.680;2023-06-10T05:44:00;26.30;;;15.50;;
57249;SDS011;43102;52.014;-0.680;2023-06-10T05:45:00;26.30;;;15.50;;
57249;SDS011;43102;52.014;-0.680;2023-06-10T05:46:00;26.30;;;15.50;;
57249;SDS011;43102;52.014;-0.680;2023-06-10T05:47:00;26.90;;;15.60;;
57249;SDS011;43102;52.014;-0.680;2023-06-10T05:48:00;26.90;;;15.60;;